sensor_id;sensor_type;location;lat;lon;timestamp;P1;durP1;ratioP1;P2;durP2;ratioP2
71343;SDS011;59146;43.850;25.948;2023-05-09T00:02:22;16.27;;;10.27;;
71343;SDS011;59146;43.850;25.948;2023-05-09T00:04:48;15.45;;;10.60;;
71343;SDS011;59146;43.850;25.948;2023-05-09T00:07:13;19.30;;;10.95;;
71343;SDS011;59146;43.850;25.948;2023-05-09T00:09:39;16.85;;;10.82;;
71343;SDS011;59146;43.850;25.948;2023-05-09T00:12:04;21.85;;;12.30;;
71343;SDS011;59146;43.850;25.948;2023-05-09T00:14:29;18.98;;;11.23;;
71343;SDS011;59146;43.850;25.948;2023-05-09T00:16:57;17.17;;;10.65;;
71343;SDS011;59146;43.850;25.948;2023-05-09T00:19:23;14.52;;;11.55;;
71343;SDS011;59146;43.850;25.948;2023-05-09T00:21:48;17.50;;;11.63;;
71343;SDS011;59146;43.850;25.948;2023-05-09T00:24:14;18.33;;;11.35;;
71343;SDS011;59146;43.850;25.948;2023-05-09T00:26:39;15.50;;;10.95;;
71343;SDS011;59146;43.850;25.948;2023-05-09T00:29:05;21.85;;;12.55;;
71343;SDS011;59146;43.850;25.948;2023-05-09T00:31:30;17.13;;;11.18;;
71343;SDS011;59146;43.850;25.948;2023-05-09T00:33:56;16.10;;;10.82;;
71343;SDS011;59146;43.850;25.948;2023-05-09T00:36:21;13.48;;;9.43;;
71343;SDS011;59146;43.850;25.948;2023-05-09T00:38:47;13.82;;;10.05;;
71343;SDS011;59146;43.850;25.948;2023-05-09T00:41:13;15.25;;;11.63;;
71343;SDS011;59146;43.850;25.948;2023-05-09T00:43:39;12.77;;;10.05;;
71343;SDS011;59146;43.850;25.948;2023-05-09T00:46:05;19.70;;;11.57;;
71343;SDS011;59146;43.850;25.948;2023-05-09T00:48:30;18.25;;;10.55;;
71343;SDS011;59146;43.850;25.948;2023-05-09T00:50:55;17.63;;;10.43;;
71343;SDS011;59146;43.850;25.948;2023-05-09T00:53:21;16.58;;;10.18;;
71343;SDS011;59146;43.850;25.948;2023-05-09T00:55:46;15.10;;;11.07;;
71343;SDS011;59146;43.850;25.948;2023-05-09T00:58:12;14.45;;;9.05;;
71343;SDS011;59146;43.850;25.948;2023-05-09T01:00:37;13.98;;;9.95;;
71343;SDS011;59146;43.850;25.948;2023-05-09T01:03:03;12.80;;;8.70;;
71343;SDS011;59146;43.850;25.948;2023-05-09T01:05:31;14.38;;;9.73;;
71343;SDS011;59146;43.850;25.948;2023-05-09T01:11:17;13.32;;;9.15;;
71343;SDS011;59146;43.850;25.948;2023-05-09T01:13:59;12.57;;;8.52;;
71343;SDS011;59146;43.850;25.948;2023-05-09T01:22:11;11.60;;;8.30;;
71343;SDS011;59146;43.850;25.948;2023-05-09T01:27:41;11.90;;;8.07;;
71343;SDS011;59146;43.850;25.948;2023-05-09T01:30:27;24.08;;;8.90;;
71343;SDS011;59146;43.850;25.948;2023-05-09T01:32:58;19.35;;;9.10;;
71343;SDS011;59146;43.850;25.948;2023-05-09T01:37:54;12.63;;;8.55;;
71343;SDS011;59146;43.850;25.948;2023-05-09T01:40:21;11.98;;;8.57;;
71343;SDS011;59146;43.850;25.948;2023-05-09T01:42:51;13.00;;;7.93;;
71343;SDS011;59146;43.850;25.948;2023-05-09T01:45:20;11.85;;;8.48;;
71343;SDS011;59146;43.850;25.948;2023-05-09T01:47:48;14.95;;;8.85;;
71343;SDS011;59146;43.850;25.948;2023-05-09T01:50:14;11.02;;;8.40;;
71343;SDS011;59146;43.850;25.948;2023-05-09T01:52:42;15.88;;;8.50;;
71343;SDS011;59146;43.850;25.948;2023-05-09T01:55:08;10.48;;;7.95;;
71343;SDS011;59146;43.850;25.948;2023-05-09T01:57:35;10.90;;;8.52;;
71343;SDS011;59146;43.850;25.948;2023-05-09T02:00:02;11.02;;;8.27;;
71343;SDS011;59146;43.850;25.948;2023-05-09T02:02:30;12.07;;;9.00;;
71343;SDS011;59146;43.850;25.948;2023-05-09T02:04:56;16.90;;;8.13;;
71343;SDS011;59146;43.850;25.948;2023-05-09T02:07:23;12.63;;;8.52;;
71343;SDS011;59146;43.850;25.948;2023-05-09T02:09:49;10.95;;;8.02;;
71343;SDS011;59146;43.850;25.948;2023-05-09T02:12:18;10.80;;;6.85;;
71343;SDS011;59146;43.850;25.948;2023-05-09T02:14:44;11.75;;;8.15;;
71343;SDS011;59146;43.850;25.948;2023-05-09T02:17:09;12.02;;;8.38;;
71343;SDS011;59146;43.850;25.948;2023-05-09T02:19:35;11.48;;;8.77;;
71343;SDS011;59146;43.850;25.948;2023-05-09T02:22:01;14.18;;;8.55;;
71343;SDS011;59146;43.850;25.948;2023-05-09T02:24:28;11.65;;;8.38;;
71343;SDS011;59146;43.850;25.948;2023-05-09T02:26:56;11.93;;;8.25;;
71343;SDS011;59146;43.850;25.948;2023-05-09T02:29:22;10.75;;;7.68;;
71343;SDS011;59146;43.850;25.948;2023-05-09T02:32:03;15.18;;;8.50;;
71343;SDS011;59146;43.850;25.948;2023-05-09T02:34:51;11.95;;;8.23;;
71343;SDS011;59146;43.850;25.948;2023-05-09T02:37:18;13.40;;;8.20;;
71343;SDS011;59146;43.850;25.948;2023-05-09T02:39:44;10.35;;;7.32;;
71343;SDS011;59146;43.850;25.948;2023-05-09T02:42:14;11.55;;;7.78;;
71343;SDS011;59146;43.850;25.948;2023-05-09T02:44:43;9.90;;;7.70;;
71343;SDS011;59146;43.850;25.948;2023-05-09T02:47:08;11.23;;;7.50;;
71343;SDS011;59146;43.850;25.948;2023-05-09T02:49:34;11.77;;;8.38;;
71343;SDS011;59146;43.850;25.948;2023-05-09T02:51:59;11.90;;;7.57;;
71343;SDS011;59146;43.850;25.948;2023-05-09T02:54:25;17.42;;;7.68;;
71343;SDS011;59146;43.850;25.948;2023-05-09T02:56:51;13.27;;;7.88;;
71343;SDS011;59146;43.850;25.948;2023-05-09T02:59:17;16.83;;;7.18;;
71343;SDS011;59146;43.850;25.948;2023-05-09T03:01:43;8.88;;;6.60;;
71343;SDS011;59146;43.850;25.948;2023-05-09T03:04:09;13.55;;;7.53;;
71343;SDS011;59146;43.850;25.948;2023-05-09T03:06:34;8.98;;;6.80;;
71343;SDS011;59146;43.850;25.948;2023-05-09T03:09:00;10.95;;;6.93;;
71343;SDS011;59146;43.850;25.948;2023-05-09T03:11:25;13.15;;;7.55;;
71343;SDS011;59146;43.850;25.948;2023-05-09T03:13:51;12.57;;;7.43;;
71343;SDS011;59146;43.850;25.948;2023-05-09T03:16:17;15.57;;;7.68;;
71343;SDS011;59146;43.850;25.948;2023-05-09T03:18:42;13.60;;;7.57;;
71343;SDS011;59146;43.850;25.948;2023-05-09T03:21:08;8.25;;;6.32;;
71343;SDS011;59146;43.850;25.948;2023-05-09T03:23:33;10.40;;;7.53;;
71343;SDS011;59146;43.850;25.948;2023-05-09T03:25:59;11.23;;;6.07;;
71343;SDS011;59146;43.850;25.948;2023-05-09T03:28:25;12.57;;;6.88;;
71343;SDS011;59146;43.850;25.948;2023-05-09T03:30:51;11.43;;;6.95;;
71343;SDS011;59146;43.850;25.948;2023-05-09T03:33:17;10.10;;;6.90;;
71343;SDS011;59146;43.850;25.948;2023-05-09T03:35:42;9.52;;;6.13;;
71343;SDS011;59146;43.850;25.948;2023-05-09T03:38:08;12.07;;;7.88;;
71343;SDS011;59146;43.850;25.948;2023-05-09T03:40:33;7.95;;;6.07;;
71343;SDS011;59146;43.850;25.948;2023-05-09T03:42:59;9.73;;;6.80;;
71343;SDS011;59146;43.850;25.948;2023-05-09T03:45:25;10.77;;;6.75;;
71343;SDS011;59146;43.850;25.948;2023-05-09T03:47:50;9.77;;;7.45;;
71343;SDS011;59146;43.850;25.948;2023-05-09T03:50:15;8.60;;;6.78;;
71343;SDS011;59146;43.850;25.948;2023-05-09T03:52:41;9.35;;;6.97;;
71343;SDS011;59146;43.850;25.948;2023-05-09T03:55:07;12.88;;;7.13;;
71343;SDS011;59146;43.850;25.948;2023-05-09T03:57:33;14.48;;;7.60;;
71343;SDS011;59146;43.850;25.948;2023-05-09T03:59:59;11.23;;;7.05;;
71343;SDS011;59146;43.850;25.948;2023-05-09T04:02:25;13.00;;;7.28;;
71343;SDS011;59146;43.850;25.948;2023-05-09T04:04:51;9.07;;;6.93;;
71343;SDS011;59146;43.850;25.948;2023-05-09T04:07:17;12.05;;;6.82;;
71343;SDS011;59146;43.850;25.948;2023-05-09T04:09:43;9.73;;;6.55;;
71343;SDS011;59146;43.850;25.948;2023-05-09T04:12:09;10.30;;;6.70;;
71343;SDS011;59146;43.850;25.948;2023-05-09T04:14:34;12.13;;;6.97;;
71343;SDS011;59146;43.850;25.948;2023-05-09T04:17:00;11.90;;;7.13;;
71343;SDS011;59146;43.850;25.948;2023-05-09T04:19:25;11.98;;;7.13;;
71343;SDS011;59146;43.850;25.948;2023-05-09T04:21:50;13.35;;;6.50;;
71343;SDS011;59146;43.850;25.948;2023-05-09T04:24:16;7.43;;;6.15;;
71343;SDS011;59146;43.850;25.948;2023-05-09T04:26:41;11.10;;;6.97;;
71343;SDS011;59146;43.850;25.948;2023-05-09T04:29:07;8.30;;;6.00;;
71343;SDS011;59146;43.850;25.948;2023-05-09T04:31:33;15.95;;;6.57;;
71343;SDS011;59146;43.850;25.948;2023-05-09T04:33:59;11.38;;;6.43;;
71343;SDS011;59146;43.850;25.948;2023-05-09T04:36:24;35.15;;;7.72;;
71343;SDS011;59146;43.850;25.948;2023-05-09T04:38:51;10.73;;;5.90;;
71343;SDS011;59146;43.850;25.948;2023-05-09T04:41:17;9.05;;;6.60;;
71343;SDS011;59146;43.850;25.948;2023-05-09T04:43:42;9.93;;;6.18;;
71343;SDS011;59146;43.850;25.948;2023-05-09T04:46:07;12.80;;;6.00;;
71343;SDS011;59146;43.850;25.948;2023-05-09T04:48:34;12.40;;;6.28;;
71343;SDS011;59146;43.850;25.948;2023-05-09T04:50:59;12.43;;;5.82;;
71343;SDS011;59146;43.850;25.948;2023-05-09T04:53:25;10.82;;;6.22;;
71343;SDS011;59146;43.850;25.948;2023-05-09T04:55:52;11.82;;;6.93;;
71343;SDS011;59146;43.850;25.948;2023-05-09T04:58:18;14.95;;;6.57;;
71343;SDS011;59146;43.850;25.948;2023-05-09T05:00:43;12.02;;;6.25;;
71343;SDS011;59146;43.850;25.948;2023-05-09T05:03:09;10.32;;;6.05;;
71343;SDS011;59146;43.850;25.948;2023-05-09T05:05:34;14.75;;;6.22;;
71343;SDS011;59146;43.850;25.948;2023-05-09T05:07:59;15.10;;;6.05;;
71343;SDS011;59146;43.850;25.948;2023-05-09T05:10:25;21.80;;;6.95;;
71343;SDS011;59146;43.850;25.948;2023-05-09T05:12:50;14.82;;;5.95;;
71343;SDS011;59146;43.850;25.948;2023-05-09T05:15:16;17.35;;;7.07;;
71343;SDS011;59146;43.850;25.948;2023-05-09T05:17:43;20.55;;;7.07;;
71343;SDS011;59146;43.850;25.948;2023-05-09T05:20:09;11.82;;;6.18;;
71343;SDS011;59146;43.850;25.948;2023-05-09T05:22:34;12.48;;;6.82;;
71343;SDS011;59146;43.850;25.948;2023-05-09T05:25:00;14.20;;;5.82;;
71343;SDS011;59146;43.850;25.948;2023-05-09T05:27:27;14.85;;;6.22;;
71343;SDS011;59146;43.850;25.948;2023-05-09T05:29:53;18.55;;;6.50;;
71343;SDS011;59146;43.850;25.948;2023-05-09T05:32:18;11.93;;;6.75;;
71343;SDS011;59146;43.850;25.948;2023-05-09T05:34:43;20.60;;;7.15;;
71343;SDS011;59146;43.850;25.948;2023-05-09T05:37:09;16.80;;;7.00;;
71343;SDS011;59146;43.850;25.948;2023-05-09T05:39:34;14.63;;;5.68;;
71343;SDS011;59146;43.850;25.948;2023-05-09T05:42:00;14.60;;;5.90;;
71343;SDS011;59146;43.850;25.948;2023-05-09T05:44:25;13.98;;;6.53;;
71343;SDS011;59146;43.850;25.948;2023-05-09T05:46:51;10.10;;;6.10;;
71343;SDS011;59146;43.850;25.948;2023-05-09T05:49:16;14.60;;;6.70;;
71343;SDS011;59146;43.850;25.948;2023-05-09T05:51:41;13.00;;;5.80;;
71343;SDS011;59146;43.850;25.948;2023-05-09T05:54:07;11.00;;;5.05;;
71343;SDS011;59146;43.850;25.948;2023-05-09T05:56:32;11.18;;;5.68;;
71343;SDS011;59146;43.850;25.948;2023-05-09T05:58:58;9.10;;;5.38;;
71343;SDS011;59146;43.850;25.948;2023-05-09T06:01:23;9.18;;;5.95;;
71343;SDS011;59146;43.850;25.948;2023-05-09T06:03:49;16.73;;;5.93;;
71343;SDS011;59146;43.850;25.948;2023-05-09T06:06:19;13.38;;;5.90;;
71343;SDS011;59146;43.850;25.948;2023-05-09T06:08:45;9.57;;;5.55;;
71343;SDS011;59146;43.850;25.948;2023-05-09T06:11:13;18.25;;;6.80;;
71343;SDS011;59146;43.850;25.948;2023-05-09T06:13:39;16.08;;;7.10;;
71343;SDS011;59146;43.850;25.948;2023-05-09T06:16:05;13.27;;;7.45;;
71343;SDS011;59146;43.850;25.948;2023-05-09T06:18:31;17.50;;;6.43;;
71343;SDS011;59146;43.850;25.948;2023-05-09T06:20:57;24.50;;;8.13;;
71343;SDS011;59146;43.850;25.948;2023-05-09T06:23:22;13.32;;;7.47;;
71343;SDS011;59146;43.850;25.948;2023-05-09T06:25:47;13.38;;;7.57;;
71343;SDS011;59146;43.850;25.948;2023-05-09T06:28:13;7.93;;;6.07;;
71343;SDS011;59146;43.850;25.948;2023-05-09T06:30:38;10.43;;;6.60;;
71343;SDS011;59146;43.850;25.948;2023-05-09T06:33:04;21.05;;;6.53;;
71343;SDS011;59146;43.850;25.948;2023-05-09T06:35:30;11.77;;;6.25;;
71343;SDS011;59146;43.850;25.948;2023-05-09T06:37:55;14.63;;;6.93;;
71343;SDS011;59146;43.850;25.948;2023-05-09T06:40:20;16.52;;;6.30;;
71343;SDS011;59146;43.850;25.948;2023-05-09T06:42:46;18.73;;;6.90;;
71343;SDS011;59146;43.850;25.948;2023-05-09T06:45:11;17.33;;;7.30;;
71343;SDS011;59146;43.850;25.948;2023-05-09T06:47:37;10.57;;;6.47;;
71343;SDS011;59146;43.850;25.948;2023-05-09T06:50:02;15.32;;;7.15;;
71343;SDS011;59146;43.850;25.948;2023-05-09T06:52:28;14.88;;;6.25;;
71343;SDS011;59146;43.850;25.948;2023-05-09T06:54:53;18.98;;;6.97;;
71343;SDS011;59146;43.850;25.948;2023-05-09T06:57:19;13.68;;;7.15;;
71343;SDS011;59146;43.850;25.948;2023-05-09T06:59:44;21.00;;;7.50;;
71343;SDS011;59146;43.850;25.948;2023-05-09T07:02:10;24.00;;;8.00;;
71343;SDS011;59146;43.850;25.948;2023-05-09T07:04:35;10.35;;;6.07;;
71343;SDS011;59146;43.850;25.948;2023-05-09T07:07:04;10.65;;;6.00;;
71343;SDS011;59146;43.850;25.948;2023-05-09T07:09:29;11.63;;;6.50;;
71343;SDS011;59146;43.850;25.948;2023-05-09T07:11:55;10.55;;;6.47;;
71343;SDS011;59146;43.850;25.948;2023-05-09T07:14:20;7.63;;;4.60;;
71343;SDS011;59146;43.850;25.948;2023-05-09T07:16:46;13.32;;;6.13;;
71343;SDS011;59146;43.850;25.948;2023-05-09T07:19:11;7.93;;;5.72;;
71343;SDS011;59146;43.850;25.948;2023-05-09T07:21:37;14.55;;;6.35;;
71343;SDS011;59146;43.850;25.948;2023-05-09T07:24:02;9.00;;;6.20;;
71343;SDS011;59146;43.850;25.948;2023-05-09T07:26:28;8.38;;;5.15;;
71343;SDS011;59146;43.850;25.948;2023-05-09T07:28:54;9.40;;;6.25;;
71343;SDS011;59146;43.850;25.948;2023-05-09T07:31:19;9.00;;;5.75;;
71343;SDS011;59146;43.850;25.948;2023-05-09T07:33:44;8.65;;;5.40;;
71343;SDS011;59146;43.850;25.948;2023-05-09T07:36:10;10.18;;;5.75;;
71343;SDS011;59146;43.850;25.948;2023-05-09T07:38:38;8.98;;;6.03;;
71343;SDS011;59146;43.850;25.948;2023-05-09T07:41:04;8.18;;;5.47;;
71343;SDS011;59146;43.850;25.948;2023-05-09T07:43:30;6.65;;;5.35;;
71343;SDS011;59146;43.850;25.948;2023-05-09T07:45:55;8.00;;;5.30;;
71343;SDS011;59146;43.850;25.948;2023-05-09T07:48:21;11.77;;;5.32;;
71343;SDS011;59146;43.850;25.948;2023-05-09T07:50:47;9.57;;;5.25;;
71343;SDS011;59146;43.850;25.948;2023-05-09T07:53:12;8.82;;;5.78;;
71343;SDS011;59146;43.850;25.948;2023-05-09T07:55:38;8.98;;;4.93;;
71343;SDS011;59146;43.850;25.948;2023-05-09T07:58:03;7.97;;;5.32;;
71343;SDS011;59146;43.850;25.948;2023-05-09T08:00:28;9.35;;;5.53;;
71343;SDS011;59146;43.850;25.948;2023-05-09T08:02:54;8.13;;;5.85;;
71343;SDS011;59146;43.850;25.948;2023-05-09T08:05:19;8.00;;;4.93;;
71343;SDS011;59146;43.850;25.948;2023-05-09T08:07:45;7.05;;;5.72;;
71343;SDS011;59146;43.850;25.948;2023-05-09T08:10:10;8.20;;;5.20;;
71343;SDS011;59146;43.850;25.948;2023-05-09T08:12:35;8.65;;;5.30;;
71343;SDS011;59146;43.850;25.948;2023-05-09T08:15:01;11.10;;;5.55;;
71343;SDS011;59146;43.850;25.948;2023-05-09T08:17:27;6.47;;;5.40;;
71343;SDS011;59146;43.850;25.948;2023-05-09T08:19:53;7.40;;;5.05;;
71343;SDS011;59146;43.850;25.948;2023-05-09T08:22:18;6.68;;;4.95;;
71343;SDS011;59146;43.850;25.948;2023-05-09T08:24:44;9.98;;;5.53;;
71343;SDS011;59146;43.850;25.948;2023-05-09T08:27:11;7.20;;;4.93;;
71343;SDS011;59146;43.850;25.948;2023-05-09T08:29:40;11.38;;;5.43;;
71343;SDS011;59146;43.850;25.948;2023-05-09T08:32:06;12.68;;;5.57;;
71343;SDS011;59146;43.850;25.948;2023-05-09T08:34:32;10.55;;;5.32;;
71343;SDS011;59146;43.850;25.948;2023-05-09T08:37:02;9.65;;;5.25;;
71343;SDS011;59146;43.850;25.948;2023-05-09T08:39:28;9.90;;;5.80;;
71343;SDS011;59146;43.850;25.948;2023-05-09T08:41:58;12.13;;;5.50;;
71343;SDS011;59146;43.850;25.948;2023-05-09T08:44:24;14.60;;;5.40;;
71343;SDS011;59146;43.850;25.948;2023-05-09T08:46:52;17.52;;;6.60;;
71343;SDS011;59146;43.850;25.948;2023-05-09T08:49:20;16.67;;;5.25;;
71343;SDS011;59146;43.850;25.948;2023-05-09T08:51:47;12.93;;;6.70;;
71343;SDS011;59146;43.850;25.948;2023-05-09T08:54:13;10.63;;;5.78;;
71343;SDS011;59146;43.850;25.948;2023-05-09T08:56:39;10.23;;;5.32;;
71343;SDS011;59146;43.850;25.948;2023-05-09T08:59:05;10.93;;;5.07;;
71343;SDS011;59146;43.850;25.948;2023-05-09T09:01:32;12.00;;;5.40;;
71343;SDS011;59146;43.850;25.948;2023-05-09T09:03:59;16.80;;;6.10;;
71343;SDS011;59146;43.850;25.948;2023-05-09T09:06:26;13.50;;;4.75;;
71343;SDS011;59146;43.850;25.948;2023-05-09T09:08:52;9.75;;;3.85;;
71343;SDS011;59146;43.850;25.948;2023-05-09T09:11:20;9.88;;;5.18;;
71343;SDS011;59146;43.850;25.948;2023-05-09T09:13:46;6.15;;;4.57;;
71343;SDS011;59146;43.850;25.948;2023-05-09T09:16:19;11.13;;;4.53;;
71343;SDS011;59146;43.850;25.948;2023-05-09T09:18:46;11.30;;;4.90;;
71343;SDS011;59146;43.850;25.948;2023-05-09T09:21:13;7.95;;;4.07;;
71343;SDS011;59146;43.850;25.948;2023-05-09T09:23:43;7.22;;;3.65;;
71343;SDS011;59146;43.850;25.948;2023-05-09T09:26:11;6.85;;;4.50;;
71343;SDS011;59146;43.850;25.948;2023-05-09T09:28:37;12.20;;;4.38;;
71343;SDS011;59146;43.850;25.948;2023-05-09T09:31:18;8.07;;;4.35;;
71343;SDS011;59146;43.850;25.948;2023-05-09T09:33:44;13.88;;;4.20;;
71343;SDS011;59146;43.850;25.948;2023-05-09T09:36:10;8.93;;;4.03;;
71343;SDS011;59146;43.850;25.948;2023-05-09T09:38:38;9.75;;;4.45;;
71343;SDS011;59146;43.850;25.948;2023-05-09T09:41:05;6.40;;;4.22;;
71343;SDS011;59146;43.850;25.948;2023-05-09T09:43:30;13.85;;;4.47;;
71343;SDS011;59146;43.850;25.948;2023-05-09T09:45:59;12.07;;;4.90;;
71343;SDS011;59146;43.850;25.948;2023-05-09T09:48:26;10.85;;;5.07;;
71343;SDS011;59146;43.850;25.948;2023-05-09T09:50:56;7.05;;;3.97;;
71343;SDS011;59146;43.850;25.948;2023-05-09T09:53:21;7.15;;;4.03;;
71343;SDS011;59146;43.850;25.948;2023-05-09T09:55:50;4.45;;;3.03;;
71343;SDS011;59146;43.850;25.948;2023-05-09T09:58:18;6.43;;;3.60;;
71343;SDS011;59146;43.850;25.948;2023-05-09T10:01:02;8.63;;;3.85;;
71343;SDS011;59146;43.850;25.948;2023-05-09T10:03:35;5.93;;;4.10;;
71343;SDS011;59146;43.850;25.948;2023-05-09T10:06:08;11.40;;;4.13;;
71343;SDS011;59146;43.850;25.948;2023-05-09T10:08:41;4.88;;;3.60;;
71343;SDS011;59146;43.850;25.948;2023-05-09T10:11:11;11.88;;;4.78;;
71343;SDS011;59146;43.850;25.948;2023-05-09T10:13:36;11.05;;;4.32;;
71343;SDS011;59146;43.850;25.948;2023-05-09T10:16:02;9.80;;;4.38;;
71343;SDS011;59146;43.850;25.948;2023-05-09T10:18:29;10.32;;;4.03;;
71343;SDS011;59146;43.850;25.948;2023-05-09T10:20:56;12.48;;;3.83;;
71343;SDS011;59146;43.850;25.948;2023-05-09T10:23:29;11.43;;;4.10;;
71343;SDS011;59146;43.850;25.948;2023-05-09T10:26:04;7.30;;;3.28;;
71343;SDS011;59146;43.850;25.948;2023-05-09T10:28:31;7.45;;;3.42;;
71343;SDS011;59146;43.850;25.948;2023-05-09T10:31:00;13.73;;;4.60;;
71343;SDS011;59146;43.850;25.948;2023-05-09T10:33:40;12.25;;;4.40;;
71343;SDS011;59146;43.850;25.948;2023-05-09T10:36:10;5.82;;;4.03;;
71343;SDS011;59146;43.850;25.948;2023-05-09T10:38:37;10.32;;;4.10;;
71343;SDS011;59146;43.850;25.948;2023-05-09T10:41:03;7.25;;;4.22;;
71343;SDS011;59146;43.850;25.948;2023-05-09T10:43:30;12.23;;;4.25;;
71343;SDS011;59146;43.850;25.948;2023-05-09T10:45:56;10.90;;;3.60;;
71343;SDS011;59146;43.850;25.948;2023-05-09T10:48:22;10.18;;;3.72;;
71343;SDS011;59146;43.850;25.948;2023-05-09T10:50:49;6.93;;;3.83;;
71343;SDS011;59146;43.850;25.948;2023-05-09T10:53:14;8.23;;;3.22;;
71343;SDS011;59146;43.850;25.948;2023-05-09T10:58:17;10.80;;;3.47;;
71343;SDS011;59146;43.850;25.948;2023-05-09T11:00:54;6.75;;;3.88;;
71343;SDS011;59146;43.850;25.948;2023-05-09T11:03:21;10.80;;;4.40;;
71343;SDS011;59146;43.850;25.948;2023-05-09T11:05:49;10.80;;;4.25;;
71343;SDS011;59146;43.850;25.948;2023-05-09T11:10:47;10.20;;;4.05;;
71343;SDS011;59146;43.850;25.948;2023-05-09T11:13:17;7.25;;;3.88;;
71343;SDS011;59146;43.850;25.948;2023-05-09T11:18:24;23.40;;;5.13;;
71343;SDS011;59146;43.850;25.948;2023-05-09T11:20:50;11.52;;;4.65;;
71343;SDS011;59146;43.850;25.948;2023-05-09T11:23:16;21.52;;;5.35;;
71343;SDS011;59146;43.850;25.948;2023-05-09T11:25:46;15.20;;;5.82;;
71343;SDS011;59146;43.850;25.948;2023-05-09T11:28:29;11.88;;;4.43;;
71343;SDS011;59146;43.850;25.948;2023-05-09T11:33:39;7.65;;;4.63;;
71343;SDS011;59146;43.850;25.948;2023-05-09T11:38:46;12.02;;;3.55;;
71343;SDS011;59146;43.850;25.948;2023-05-09T11:41:12;6.10;;;3.20;;
71343;SDS011;59146;43.850;25.948;2023-05-09T11:43:38;12.57;;;4.07;;
71343;SDS011;59146;43.850;25.948;2023-05-09T11:46:06;7.25;;;3.33;;
71343;SDS011;59146;43.850;25.948;2023-05-09T11:48:38;7.85;;;3.50;;
71343;SDS011;59146;43.850;25.948;2023-05-09T11:51:04;8.75;;;3.55;;
71343;SDS011;59146;43.850;25.948;2023-05-09T11:53:29;8.93;;;4.80;;
71343;SDS011;59146;43.850;25.948;2023-05-09T11:55:56;5.82;;;3.83;;
71343;SDS011;59146;43.850;25.948;2023-05-09T11:58:21;6.90;;;3.85;;
71343;SDS011;59146;43.850;25.948;2023-05-09T12:00:47;5.55;;;3.58;;
71343;SDS011;59146;43.850;25.948;2023-05-09T12:03:12;6.90;;;3.83;;
71343;SDS011;59146;43.850;25.948;2023-05-09T12:05:38;6.65;;;4.00;;
71343;SDS011;59146;43.850;25.948;2023-05-09T12:08:04;6.30;;;3.33;;
71343;SDS011;59146;43.850;25.948;2023-05-09T12:10:31;6.32;;;3.60;;
71343;SDS011;59146;43.850;25.948;2023-05-09T12:12:57;15.30;;;3.33;;
71343;SDS011;59146;43.850;25.948;2023-05-09T12:15:22;7.95;;;3.63;;
71343;SDS011;59146;43.850;25.948;2023-05-09T12:18:04;10.15;;;3.60;;
71343;SDS011;59146;43.850;25.948;2023-05-09T12:21:04;6.70;;;4.05;;
71343;SDS011;59146;43.850;25.948;2023-05-09T12:23:23;8.13;;;3.80;;
71343;SDS011;59146;43.850;25.948;2023-05-09T12:25:52;6.10;;;3.67;;
71343;SDS011;59146;43.850;25.948;2023-05-09T12:28:19;6.83;;;4.33;;
71343;SDS011;59146;43.850;25.948;2023-05-09T12:30:47;8.45;;;3.65;;
71343;SDS011;59146;43.850;25.948;2023-05-09T12:33:13;10.50;;;3.78;;
71343;SDS011;59146;43.850;25.948;2023-05-09T12:35:38;8.18;;;3.58;;
71343;SDS011;59146;43.850;25.948;2023-05-09T12:38:04;7.35;;;3.63;;
71343;SDS011;59146;43.850;25.948;2023-05-09T12:40:29;11.63;;;4.43;;
71343;SDS011;59146;43.850;25.948;2023-05-09T12:42:56;4.47;;;3.40;;
71343;SDS011;59146;43.850;25.948;2023-05-09T12:45:25;11.20;;;4.10;;
71343;SDS011;59146;43.850;25.948;2023-05-09T12:47:51;5.78;;;3.38;;
71343;SDS011;59146;43.850;25.948;2023-05-09T12:50:17;5.32;;;3.80;;
71343;SDS011;59146;43.850;25.948;2023-05-09T12:52:43;5.32;;;3.67;;
71343;SDS011;59146;43.850;25.948;2023-05-09T12:55:14;8.05;;;3.80;;
71343;SDS011;59146;43.850;25.948;2023-05-09T12:57:40;5.30;;;3.70;;
71343;SDS011;59146;43.850;25.948;2023-05-09T13:00:07;5.63;;;3.70;;
71343;SDS011;59146;43.850;25.948;2023-05-09T13:02:34;7.25;;;4.03;;
71343;SDS011;59146;43.850;25.948;2023-05-09T13:05:05;6.22;;;4.25;;
71343;SDS011;59146;43.850;25.948;2023-05-09T13:07:41;5.50;;;4.18;;
71343;SDS011;59146;43.850;25.948;2023-05-09T13:10:14;9.68;;;4.00;;
71343;SDS011;59146;43.850;25.948;2023-05-09T13:12:43;7.07;;;4.38;;
71343;SDS011;59146;43.850;25.948;2023-05-09T13:15:09;6.50;;;4.35;;
71343;SDS011;59146;43.850;25.948;2023-05-09T13:17:36;9.00;;;4.25;;
71343;SDS011;59146;43.850;25.948;2023-05-09T13:20:01;5.68;;;3.67;;
71343;SDS011;59146;43.850;25.948;2023-05-09T13:22:28;7.68;;;4.10;;
71343;SDS011;59146;43.850;25.948;2023-05-09T13:24:54;9.82;;;4.10;;
71343;SDS011;59146;43.850;25.948;2023-05-09T13:27:20;6.15;;;4.05;;
71343;SDS011;59146;43.850;25.948;2023-05-09T13:29:48;5.28;;;4.07;;
71343;SDS011;59146;43.850;25.948;2023-05-09T13:32:13;6.53;;;3.78;;
71343;SDS011;59146;43.850;25.948;2023-05-09T13:34:39;7.72;;;4.10;;
71343;SDS011;59146;43.850;25.948;2023-05-09T13:37:05;12.15;;;4.88;;
71343;SDS011;59146;43.850;25.948;2023-05-09T13:39:30;5.38;;;4.03;;
71343;SDS011;59146;43.850;25.948;2023-05-09T13:41:56;8.95;;;4.30;;
71343;SDS011;59146;43.850;25.948;2023-05-09T13:44:21;9.95;;;4.10;;
71343;SDS011;59146;43.850;25.948;2023-05-09T13:46:47;11.00;;;4.35;;
71343;SDS011;59146;43.850;25.948;2023-05-09T13:49:13;6.18;;;3.35;;
71343;SDS011;59146;43.850;25.948;2023-05-09T13:51:39;5.70;;;4.22;;
71343;SDS011;59146;43.850;25.948;2023-05-09T13:54:05;6.07;;;4.40;;
71343;SDS011;59146;43.850;25.948;2023-05-09T13:56:34;7.70;;;3.63;;
71343;SDS011;59146;43.850;25.948;2023-05-09T13:58:59;13.43;;;3.47;;
71343;SDS011;59146;43.850;25.948;2023-05-09T14:01:25;8.43;;;4.72;;
71343;SDS011;59146;43.850;25.948;2023-05-09T14:03:50;4.95;;;3.70;;
71343;SDS011;59146;43.850;25.948;2023-05-09T14:06:16;9.75;;;4.70;;
71343;SDS011;59146;43.850;25.948;2023-05-09T14:08:41;7.68;;;4.72;;
71343;SDS011;59146;43.850;25.948;2023-05-09T14:11:07;7.47;;;4.78;;
71343;SDS011;59146;43.850;25.948;2023-05-09T14:13:33;10.32;;;4.63;;
71343;SDS011;59146;43.850;25.948;2023-05-09T14:15:58;6.18;;;4.63;;
71343;SDS011;59146;43.850;25.948;2023-05-09T14:18:24;12.07;;;4.80;;
71343;SDS011;59146;43.850;25.948;2023-05-09T14:20:49;6.82;;;5.35;;
71343;SDS011;59146;43.850;25.948;2023-05-09T14:23:15;6.75;;;5.28;;
71343;SDS011;59146;43.850;25.948;2023-05-09T14:25:40;16.05;;;5.28;;
71343;SDS011;59146;43.850;25.948;2023-05-09T14:28:06;9.63;;;4.78;;
71343;SDS011;59146;43.850;25.948;2023-05-09T14:30:33;5.85;;;4.80;;
71343;SDS011;59146;43.850;25.948;2023-05-09T14:32:59;7.35;;;4.88;;
71343;SDS011;59146;43.850;25.948;2023-05-09T14:35:24;8.20;;;5.30;;
71343;SDS011;59146;43.850;25.948;2023-05-09T14:37:50;7.18;;;5.32;;
71343;SDS011;59146;43.850;25.948;2023-05-09T14:40:15;7.72;;;4.70;;
71343;SDS011;59146;43.850;25.948;2023-05-09T14:42:41;6.85;;;4.72;;
71343;SDS011;59146;43.850;25.948;2023-05-09T14:45:08;10.63;;;5.53;;
71343;SDS011;59146;43.850;25.948;2023-05-09T14:47:35;10.43;;;5.30;;
71343;SDS011;59146;43.850;25.948;2023-05-09T14:50:01;9.55;;;7.15;;
71343;SDS011;59146;43.850;25.948;2023-05-09T14:52:27;12.20;;;5.28;;